createdAt,value
2023-03-26T00:00:18.154Z,928.42
2023-03-26T00:01:18.256Z,928.42
2023-03-26T00:02:18.192Z,928.42
2023-03-26T00:03:18.168Z,928.43
2023-03-26T00:04:18.164Z,928.43
2023-03-26T00:05:18.155Z,928.43
2023-03-26T00:06:18.113Z,928.44
2023-03-26T00:07:18.123Z,928.47
2023-03-26T00:08:18.166Z,928.48
2023-03-26T00:09:18.071Z,928.50
2023-03-26T00:10:18.172Z,928.50
2023-03-26T00:11:18.079Z,928.51
2023-03-26T00:12:18.030Z,928.52
2023-03-26T00:13:18.029Z,928.52
2023-03-26T00:14:18.106Z,928.53
2023-03-26T00:15:18.037Z,928.53
2023-03-26T00:16:18.086Z,928.54
2023-03-26T00:17:18.026Z,928.54
2023-03-26T00:18:17.928Z,928.55
2023-03-26T00:19:17.986Z,928.55
2023-03-26T00:20:17.950Z,928.55
2023-03-26T00:21:17.957Z,928.56
2023-03-26T00:22:18.024Z,928.55
2023-03-26T00:23:17.897Z,928.55
2023-03-26T00:24:17.857Z,928.56
2023-03-26T00:25:17.942Z,928.58
2023-03-26T00:26:17.860Z,928.57
2023-03-26T00:27:18.694Z,928.59
2023-03-26T00:28:17.824Z,928.61
2023-03-26T00:29:17.833Z,928.62
2023-03-26T00:30:17.846Z,928.64
2023-03-26T00:31:17.943Z,928.65
2023-03-26T00:32:19.355Z,928.66
2023-03-26T00:33:17.786Z,928.65
2023-03-26T00:34:17.813Z,928.65
2023-03-26T00:35:17.819Z,928.64
2023-03-26T00:36:17.797Z,928.63
2023-03-26T00:37:17.794Z,928.61
2023-03-26T00:38:17.761Z,928.60
2023-03-26T00:39:17.981Z,928.58
2023-03-26T00:40:17.758Z,928.59
2023-03-26T00:41:17.998Z,928.60
2023-03-26T00:42:17.664Z,928.59
2023-03-26T00:43:17.771Z,928.59
2023-03-26T00:44:17.691Z,928.59
2023-03-26T00:45:17.707Z,928.58
2023-03-26T00:46:17.920Z,928.58
2023-03-26T00:47:17.698Z,928.58
2023-03-26T00:48:17.607Z,928.59
2023-03-26T00:49:17.718Z,928.58
2023-03-26T00:50:17.733Z,928.58
2023-03-26T00:51:17.755Z,928.58
2023-03-26T00:52:17.629Z,928.58
2023-03-26T00:53:17.642Z,928.57
2023-03-26T00:54:17.624Z,928.56
2023-03-26T00:55:17.670Z,928.56
2023-03-26T00:56:17.670Z,928.54
2023-03-26T00:57:28.885Z,928.55
2023-03-26T00:58:17.575Z,928.56
2023-03-26T00:59:17.657Z,928.56
2023-03-26T01:00:17.584Z,928.56
2023-03-26T01:01:17.644Z,928.57
2023-03-26T01:02:17.641Z,928.56
2023-03-26T01:03:27.959Z,928.55
2023-03-26T01:04:17.840Z,928.55
2023-03-26T01:05:17.579Z,928.56
2023-03-26T01:06:17.660Z,928.55
2023-03-26T01:07:18.870Z,928.55
2023-03-26T01:08:19.292Z,928.55
2023-03-26T01:09:18.271Z,928.54
2023-03-26T01:10:17.681Z,928.55
2023-03-26T01:11:18.389Z,928.53
2023-03-26T01:12:17.687Z,928.54
2023-03-26T01:13:18.113Z,928.55
2023-03-26T01:14:17.906Z,928.56
2023-03-26T01:15:17.805Z,928.58
2023-03-26T01:16:18.850Z,928.59
2023-03-26T01:17:18.117Z,928.59
2023-03-26T01:18:18.948Z,928.58
2023-03-26T01:19:20.602Z,928.58
2023-03-26T01:20:17.322Z,928.58
2023-03-26T01:21:17.345Z,928.57
2023-03-26T01:22:17.296Z,928.56
2023-03-26T01:23:17.298Z,928.56
2023-03-26T01:24:17.311Z,928.55
2023-03-26T01:25:17.313Z,928.53
2023-03-26T01:26:17.217Z,928.53
2023-03-26T01:27:17.200Z,928.52
2023-03-26T01:28:17.274Z,928.52
2023-03-26T01:29:17.248Z,928.53
2023-03-26T01:30:17.207Z,928.53
2023-03-26T01:31:17.312Z,928.54
2023-03-26T01:32:17.126Z,928.54
2023-03-26T01:33:17.360Z,928.55
2023-03-26T01:34:17.176Z,928.55
2023-03-26T01:35:17.245Z,928.55
2023-03-26T01:36:17.137Z,928.56
2023-03-26T01:37:17.212Z,928.58
2023-03-26T01:38:17.074Z,928.59
2023-03-26T01:39:17.082Z,928.60
2023-03-26T01:40:17.130Z,928.59
2023-03-26T01:41:17.190Z,928.58
2023-03-26T01:42:17.070Z,928.56
2023-03-26T01:43:17.184Z,928.54
2023-03-26T01:44:17.011Z,928.52
2023-03-26T01:45:17.120Z,928.50
2023-03-26T01:46:17.235Z,928.50
2023-03-26T01:47:17.026Z,928.51
2023-03-26T01:48:17.039Z,928.51
2023-03-26T01:49:17.031Z,928.52
2023-03-26T01:50:17.055Z,928.52
2023-03-26T01:51:17.057Z,928.54
2023-03-26T01:52:17.088Z,928.53
2023-03-26T01:53:17.473Z,928.53
2023-03-26T01:54:16.934Z,928.52
2023-03-26T01:55:16.981Z,928.51
2023-03-26T01:56:16.983Z,928.51
2023-03-26T01:57:17.041Z,928.51
2023-03-26T01:58:17.515Z,928.51
2023-03-26T01:59:16.955Z,928.51
2023-03-26T02:00:16.909Z,928.52
2023-03-26T02:01:16.923Z,928.54
2023-03-26T02:02:16.994Z,928.56
2023-03-26T02:03:16.991Z,928.56
2023-03-26T02:04:16.939Z,928.55
2023-03-26T02:05:16.841Z,928.55
2023-03-26T02:06:16.846Z,928.55
2023-03-26T02:07:16.757Z,928.55
2023-03-26T02:08:17.788Z,928.54
2023-03-26T02:09:16.864Z,928.53
2023-03-26T02:10:16.820Z,928.52
2023-03-26T02:11:16.773Z,928.52
2023-03-26T02:12:16.687Z,928.51
2023-03-26T02:13:16.733Z,928.51
2023-03-26T02:14:16.742Z,928.51
2023-03-26T02:15:16.807Z,928.49
2023-03-26T02:16:17.007Z,928.49
2023-03-26T02:17:16.622Z,928.46
2023-03-26T02:18:16.672Z,928.45
2023-03-26T02:19:16.752Z,928.43
2023-03-26T02:20:16.690Z,928.41
2023-03-26T02:21:17.574Z,928.43
2023-03-26T02:22:16.652Z,928.43
2023-03-26T02:23:16.606Z,928.45
2023-03-26T02:24:16.621Z,928.46
2023-03-26T02:25:16.580Z,928.47
2023-03-26T02:26:16.628Z,928.47
2023-03-26T02:27:16.584Z,928.46
2023-03-26T02:28:16.594Z,928.45
2023-03-26T02:29:16.546Z,928.44
2023-03-26T02:30:16.561Z,928.42
2023-03-26T02:31:16.553Z,928.41
2023-03-26T02:32:16.515Z,928.39
2023-03-26T02:33:16.518Z,928.38
2023-03-26T02:34:16.521Z,928.36
2023-03-26T02:35:16.464Z,928.36
2023-03-26T02:36:16.636Z,928.37
2023-03-26T02:37:16.448Z,928.39
2023-03-26T02:38:16.444Z,928.40
2023-03-26T02:39:16.506Z,928.41
2023-03-26T02:40:16.471Z,928.41
2023-03-26T02:41:16.421Z,928.41
2023-03-26T02:42:16.523Z,928.41
2023-03-26T02:43:16.432Z,928.40
2023-03-26T02:44:16.386Z,928.40
2023-03-26T02:45:16.489Z,928.38
2023-03-26T02:46:16.436Z,928.38
2023-03-26T02:47:16.311Z,928.36
2023-03-26T02:48:16.373Z,928.34
2023-03-26T02:49:16.407Z,928.33
2023-03-26T02:50:16.426Z,928.32
2023-03-26T02:51:16.363Z,928.31
2023-03-26T02:52:16.339Z,928.31
2023-03-26T02:53:16.336Z,928.31
2023-03-26T02:54:16.354Z,928.31
2023-03-26T02:55:16.358Z,928.30
2023-03-26T02:56:16.360Z,928.30
2023-03-26T02:57:16.389Z,928.30
2023-03-26T02:58:16.363Z,928.29
2023-03-26T02:59:16.281Z,928.29
2023-03-26T03:00:16.383Z,928.31
2023-03-26T03:01:16.339Z,928.31
2023-03-26T03:02:16.350Z,928.32
2023-03-26T03:03:16.247Z,928.31
2023-03-26T03:04:16.306Z,928.31
2023-03-26T03:05:16.218Z,928.31
2023-03-26T03:06:16.220Z,928.31
2023-03-26T03:07:16.165Z,928.30
2023-03-26T03:08:16.168Z,928.29
2023-03-26T03:09:16.141Z,928.28
2023-03-26T03:10:16.255Z,928.27
2023-03-26T03:11:16.099Z,928.27
2023-03-26T03:12:16.162Z,928.26
2023-03-26T03:13:16.174Z,928.24
2023-03-26T03:14:16.110Z,928.22
2023-03-26T03:15:16.080Z,928.19
2023-03-26T03:16:16.102Z,928.16
2023-03-26T03:17:16.033Z,928.14
2023-03-26T03:18:16.039Z,928.12
2023-03-26T03:19:16.048Z,928.10
2023-03-26T03:20:16.148Z,928.09
2023-03-26T03:21:16.027Z,928.08
2023-03-26T03:22:16.064Z,928.07
2023-03-26T03:23:15.946Z,928.06
2023-03-26T03:24:16.021Z,928.04
2023-03-26T03:25:15.937Z,928.03
2023-03-26T03:26:15.945Z,928.01
2023-03-26T03:27:15.950Z,928.01
2023-03-26T03:28:16.055Z,928.02
2023-03-26T03:29:15.874Z,928.03
2023-03-26T03:30:15.892Z,928.03
2023-03-26T03:31:15.933Z,928.03
2023-03-26T03:32:15.877Z,928.03
2023-03-26T03:33:15.888Z,928.02
2023-03-26T03:34:15.921Z,928.00
2023-03-26T03:35:15.901Z,928.00
2023-03-26T03:36:20.972Z,928.00
2023-03-26T03:37:15.910Z,928.00
2023-03-26T03:38:15.912Z,928.01
2023-03-26T03:39:15.832Z,928.02
2023-03-26T03:40:16.179Z,928.03
2023-03-26T03:41:15.793Z,928.04
2023-03-26T03:42:15.777Z,928.03
2023-03-26T03:43:15.790Z,928.02
2023-03-26T03:44:15.963Z,928.02
2023-03-26T03:45:16.214Z,928.02
2023-03-26T03:46:15.814Z,928.01
2023-03-26T03:47:15.725Z,928.00
2023-03-26T03:48:15.789Z,928.00
2023-03-26T03:49:15.790Z,927.98
2023-03-26T03:50:15.735Z,927.97
2023-03-26T03:51:15.746Z,927.94
2023-03-26T03:52:15.803Z,927.92
2023-03-26T03:53:15.710Z,927.90
2023-03-26T03:54:15.716Z,927.89
2023-03-26T03:55:15.623Z,927.89
2023-03-26T03:56:15.674Z,927.89
2023-03-26T03:57:15.736Z,927.89
2023-03-26T03:58:15.678Z,927.88
2023-03-26T03:59:15.661Z,927.88
2023-03-26T04:00:15.590Z,927.89
2023-03-26T04:01:15.633Z,927.88
2023-03-26T04:02:15.699Z,927.88
2023-03-26T04:03:15.691Z,927.89
2023-03-26T04:04:15.774Z,927.90
2023-03-26T04:05:15.593Z,927.90
2023-03-26T04:06:15.533Z,927.91
2023-03-26T04:07:15.531Z,927.90
2023-03-26T04:08:15.609Z,927.90
2023-03-26T04:09:15.673Z,927.88
2023-03-26T04:10:15.517Z,927.87
2023-03-26T04:11:15.520Z,927.86
2023-03-26T04:12:15.556Z,927.85
2023-03-26T04:13:15.504Z,927.85
2023-03-26T04:14:15.550Z,927.85
2023-03-26T04:15:15.557Z,927.86
2023-03-26T04:16:15.573Z,927.86
2023-03-26T04:17:15.511Z,927.86
2023-03-26T04:18:15.448Z,927.86
2023-03-26T04:19:15.450Z,927.86
2023-03-26T04:20:15.381Z,927.85
2023-03-26T04:21:15.463Z,927.84
2023-03-26T04:22:15.400Z,927.83
2023-03-26T04:23:15.302Z,927.84
2023-03-26T04:24:15.304Z,927.85
2023-03-26T04:25:15.741Z,927.86
2023-03-26T04:26:15.322Z,927.88
2023-03-26T04:27:15.302Z,927.88
2023-03-26T04:28:15.332Z,927.89
2023-03-26T04:29:15.342Z,927.88
2023-03-26T04:30:15.260Z,927.87
2023-03-26T04:31:15.716Z,927.86
2023-03-26T04:32:16.081Z,927.85
2023-03-26T04:33:16.153Z,927.85
2023-03-26T04:34:15.240Z,927.84
2023-03-26T04:35:15.255Z,927.84
2023-03-26T04:36:15.255Z,927.84
2023-03-26T04:37:15.158Z,927.84
2023-03-26T04:38:15.272Z,927.84
2023-03-26T04:39:15.184Z,927.84
2023-03-26T04:40:15.170Z,927.84
2023-03-26T04:41:15.189Z,927.83
2023-03-26T04:42:15.088Z,927.83
2023-03-26T04:43:15.237Z,927.82
2023-03-26T04:44:15.093Z,927.82
2023-03-26T04:45:15.125Z,927.81
2023-03-26T04:46:15.147Z,927.80
2023-03-26T04:47:15.332Z,927.80
2023-03-26T04:48:15.053Z,927.80
2023-03-26T04:49:15.120Z,927.80
2023-03-26T04:50:15.159Z,927.80
2023-03-26T04:51:15.105Z,927.80
2023-03-26T04:52:15.073Z,927.80
2023-03-26T04:53:15.062Z,927.79
2023-03-26T04:54:15.265Z,927.78
2023-03-26T04:55:14.974Z,927.76
2023-03-26T04:56:14.986Z,927.73
2023-03-26T04:57:15.054Z,927.72
2023-03-26T04:58:14.996Z,927.71
2023-03-26T04:59:15.026Z,927.71
2023-03-26T05:00:14.995Z,927.71
2023-03-26T05:01:15.261Z,927.72
2023-03-26T05:02:15.106Z,927.71
2023-03-26T05:03:14.938Z,927.70
2023-03-26T05:04:15.122Z,927.69
2023-03-26T05:05:14.920Z,927.66
2023-03-26T05:06:14.908Z,927.63
2023-03-26T05:07:14.909Z,927.61
2023-03-26T05:08:14.912Z,927.59
2023-03-26T05:09:15.161Z,927.59
2023-03-26T05:10:14.886Z,927.57
2023-03-26T05:11:14.857Z,927.53
2023-03-26T05:12:14.777Z,927.50
2023-03-26T05:13:14.873Z,927.46
2023-03-26T05:14:15.099Z,927.42
2023-03-26T05:15:15.618Z,927.40
2023-03-26T05:16:14.815Z,927.38
2023-03-26T05:17:15.002Z,927.38
2023-03-26T05:18:14.816Z,927.38
2023-03-26T05:19:14.688Z,927.38
2023-03-26T05:20:15.124Z,927.37
2023-03-26T05:21:14.805Z,927.37
2023-03-26T05:22:14.731Z,927.35
2023-03-26T05:23:14.649Z,927.34
2023-03-26T05:24:14.656Z,927.32
2023-03-26T05:25:15.364Z,927.32
2023-03-26T05:26:15.084Z,927.33
2023-03-26T05:27:14.761Z,927.35
2023-03-26T05:28:14.683Z,927.36
2023-03-26T05:29:14.592Z,927.34
2023-03-26T05:30:14.598Z,927.32
2023-03-26T05:31:14.598Z,927.29
2023-03-26T05:32:14.608Z,927.27
2023-03-26T05:33:15.619Z,927.25
2023-03-26T05:34:14.549Z,927.24
2023-03-26T05:35:14.549Z,927.23
2023-03-26T05:36:14.609Z,927.23
2023-03-26T05:37:14.539Z,927.22
2023-03-26T05:38:14.629Z,927.23
2023-03-26T05:39:14.559Z,927.24
2023-03-26T05:40:14.549Z,927.24
2023-03-26T05:41:14.473Z,927.24
2023-03-26T05:42:14.549Z,927.22
2023-03-26T05:43:14.567Z,927.21
2023-03-26T05:44:14.662Z,927.17
2023-03-26T05:45:14.594Z,927.17
2023-03-26T05:46:14.410Z,927.13
2023-03-26T05:47:14.401Z,927.11
2023-03-26T05:48:14.410Z,927.09
2023-03-26T05:49:15.354Z,927.09
2023-03-26T05:50:14.627Z,927.08
2023-03-26T05:51:14.422Z,927.08
2023-03-26T05:52:14.343Z,927.08
2023-03-26T05:53:14.351Z,927.08
2023-03-26T05:54:14.352Z,927.06
2023-03-26T05:55:14.445Z,927.05
2023-03-26T05:56:14.358Z,927.03
2023-03-26T05:57:14.451Z,927.02
2023-03-26T05:58:14.265Z,927.00
2023-03-26T05:59:14.275Z,926.99
2023-03-26T06:00:14.369Z,926.98
2023-03-26T06:01:14.295Z,926.96
2023-03-26T06:02:14.292Z,926.94
2023-03-26T06:03:14.544Z,926.93
2023-03-26T06:04:14.342Z,926.91
2023-03-26T06:05:14.224Z,926.90
2023-03-26T06:06:14.220Z,926.88
2023-03-26T06:07:14.234Z,926.87
2023-03-26T06:08:14.231Z,926.87
2023-03-26T06:09:14.238Z,926.86
2023-03-26T06:10:17.950Z,926.87
2023-03-26T06:11:14.156Z,926.86
2023-03-26T06:12:14.171Z,926.85
2023-03-26T06:13:14.244Z,926.85
2023-03-26T06:14:14.185Z,926.83
2023-03-26T06:15:14.177Z,926.81
2023-03-26T06:16:26.236Z,926.77
2023-03-26T06:17:14.091Z,926.74
2023-03-26T06:18:14.147Z,926.72
2023-03-26T06:19:14.155Z,926.71
2023-03-26T06:20:14.130Z,926.69
2023-03-26T06:21:14.137Z,926.68
2023-03-26T06:22:14.129Z,926.66
2023-03-26T06:23:14.108Z,926.64
2023-03-26T06:24:14.037Z,926.62
2023-03-26T06:25:14.062Z,926.59
2023-03-26T06:26:14.054Z,926.59
2023-03-26T06:27:13.965Z,926.58
2023-03-26T06:28:13.967Z,926.57
2023-03-26T06:29:13.992Z,926.58
2023-03-26T06:30:13.975Z,926.60
2023-03-26T06:31:14.092Z,926.60
2023-03-26T06:32:19.543Z,926.62
2023-03-26T06:33:14.015Z,926.62
2023-03-26T06:34:13.904Z,926.62
2023-03-26T06:35:14.004Z,926.61
2023-03-26T06:36:14.008Z,926.60
2023-03-26T06:37:14.230Z,926.60
2023-03-26T06:38:13.932Z,926.59
2023-03-26T06:39:13.949Z,926.59
2023-03-26T06:40:15.503Z,926.60
2023-03-26T06:41:13.944Z,926.60
2023-03-26T06:42:13.860Z,926.62
2023-03-26T06:43:13.973Z,926.61
2023-03-26T06:44:13.909Z,926.60
2023-03-26T06:45:13.946Z,926.60
2023-03-26T06:46:13.819Z,926.60
2023-03-26T06:47:13.792Z,926.60
2023-03-26T06:48:13.795Z,926.60
2023-03-26T06:49:13.779Z,926.61
2023-03-26T06:50:13.798Z,926.60
2023-03-26T06:51:13.816Z,926.60
2023-03-26T06:52:13.720Z,926.60
2023-03-26T06:53:13.721Z,926.62
2023-03-26T06:54:13.738Z,926.64
2023-03-26T06:55:13.718Z,926.66
2023-03-26T06:56:13.753Z,926.67
2023-03-26T06:57:13.811Z,926.68
2023-03-26T06:58:13.665Z,926.69
2023-03-26T06:59:13.643Z,926.71
2023-03-26T07:00:13.669Z,926.72
2023-03-26T07:01:13.723Z,926.74
2023-03-26T07:02:14.194Z,926.75
2023-03-26T07:03:13.672Z,926.74
2023-03-26T07:04:13.602Z,926.75
2023-03-26T07:05:13.592Z,926.75
2023-03-26T07:06:13.615Z,926.76
2023-03-26T07:07:13.603Z,926.78
2023-03-26T07:08:13.780Z,926.78
2023-03-26T07:09:13.587Z,926.79
2023-03-26T07:10:13.527Z,926.80
2023-03-26T07:11:13.637Z,926.81
2023-03-26T07:12:13.533Z,926.82
2023-03-26T07:13:13.551Z,926.82
2023-03-26T07:14:13.710Z,926.81
2023-03-26T07:15:13.629Z,926.81
2023-03-26T07:16:13.461Z,926.81
2023-03-26T07:17:13.465Z,926.81
2023-03-26T07:18:13.479Z,926.82
2023-03-26T07:19:13.483Z,926.84
2023-03-26T07:20:14.205Z,926.84
2023-03-26T07:21:13.454Z,926.84
2023-03-26T07:22:13.462Z,926.84
2023-03-26T07:23:13.405Z,926.84
2023-03-26T07:24:14.336Z,926.85
2023-03-26T07:25:13.482Z,926.84
2023-03-26T07:26:13.485Z,926.84
2023-03-26T07:27:14.417Z,926.84
2023-03-26T07:28:13.503Z,926.83
2023-03-26T07:29:13.415Z,926.83
2023-03-26T07:30:13.434Z,926.82
2023-03-26T07:31:13.358Z,926.81
2023-03-26T07:32:14.675Z,926.81
2023-03-26T07:33:13.351Z,926.80
2023-03-26T07:34:13.357Z,926.78
2023-03-26T07:35:13.355Z,926.77
2023-03-26T07:36:13.356Z,926.76
2023-03-26T07:37:13.354Z,926.76
2023-03-26T07:38:13.320Z,926.77
2023-03-26T07:39:14.304Z,926.78
2023-03-26T07:40:13.389Z,926.78
2023-03-26T07:41:13.289Z,926.78
2023-03-26T07:42:13.285Z,926.77
2023-03-26T07:43:13.311Z,926.77
2023-03-26T07:44:13.306Z,926.77
2023-03-26T07:45:14.176Z,926.78
2023-03-26T07:46:13.347Z,926.79
2023-03-26T07:47:13.232Z,926.80
2023-03-26T07:48:13.231Z,926.79
2023-03-26T07:49:13.230Z,926.78
2023-03-26T07:50:13.344Z,926.77
2023-03-26T07:51:13.759Z,926.76
2023-03-26T07:52:13.256Z,926.75
2023-03-26T07:53:13.148Z,926.76
2023-03-26T07:54:13.164Z,926.77
2023-03-26T07:55:13.169Z,926.78
2023-03-26T07:56:13.220Z,926.81
2023-03-26T07:57:13.702Z,926.83
2023-03-26T07:58:13.705Z,926.85
2023-03-26T07:59:13.041Z,926.88
2023-03-26T08:00:13.110Z,926.90
2023-03-26T08:01:13.035Z,926.93
2023-03-26T08:02:13.043Z,926.95
2023-03-26T08:03:13.179Z,926.96
2023-03-26T08:04:23.460Z,926.95
2023-03-26T08:05:12.969Z,926.95
2023-03-26T08:06:12.961Z,926.94
2023-03-26T08:07:13.036Z,926.92
2023-03-26T08:08:12.968Z,926.91
2023-03-26T08:09:12.986Z,926.91
2023-03-26T08:10:12.884Z,926.89
2023-03-26T08:11:12.887Z,926.89
2023-03-26T08:12:12.898Z,926.88
2023-03-26T08:13:12.978Z,926.88
2023-03-26T08:14:13.637Z,926.88
2023-03-26T08:15:12.994Z,926.87
2023-03-26T08:16:12.849Z,926.86
2023-03-26T08:17:12.829Z,926.85
2023-03-26T08:18:12.915Z,926.84
2023-03-26T08:19:12.915Z,926.84
2023-03-26T08:20:13.758Z,926.86
2023-03-26T08:21:12.939Z,926.89
2023-03-26T08:22:12.763Z,926.91
2023-03-26T08:23:12.765Z,926.92
2023-03-26T08:24:12.850Z,926.93
2023-03-26T08:25:13.074Z,926.93
2023-03-26T08:26:12.875Z,926.92
2023-03-26T08:27:12.848Z,926.92
2023-03-26T08:28:12.696Z,926.91
2023-03-26T08:29:12.804Z,926.91
2023-03-26T08:30:12.801Z,926.91
2023-03-26T08:31:12.841Z,926.91
2023-03-26T08:32:12.802Z,926.91
2023-03-26T08:33:12.713Z,926.90
2023-03-26T08:34:12.723Z,926.90
2023-03-26T08:35:12.764Z,926.90
2023-03-26T08:36:12.670Z,926.89
2023-03-26T08:37:12.672Z,926.88
2023-03-26T08:38:12.683Z,926.88
2023-03-26T08:39:12.653Z,926.89
2023-03-26T08:40:13.411Z,926.89
2023-03-26T08:41:12.689Z,926.90
2023-03-26T08:42:12.569Z,926.91
2023-03-26T08:43:12.681Z,926.92
2023-03-26T08:44:12.517Z,926.93
2023-03-26T08:45:12.598Z,926.94
2023-03-26T08:46:12.619Z,926.94
2023-03-26T08:47:12.538Z,926.95
2023-03-26T08:48:12.499Z,926.96
2023-03-26T08:49:12.553Z,926.98
2023-03-26T08:50:12.536Z,927.00
2023-03-26T08:51:12.564Z,927.02
2023-03-26T08:52:12.548Z,927.02
2023-03-26T08:53:12.579Z,927.04
2023-03-26T08:54:12.555Z,927.03
2023-03-26T08:55:12.521Z,927.02
2023-03-26T08:56:12.500Z,927.03
2023-03-26T08:57:12.572Z,927.01
2023-03-26T08:58:12.380Z,927.00
2023-03-26T08:59:12.569Z,927.00
2023-03-26T09:00:12.470Z,927.01
2023-03-26T09:01:12.408Z,927.01
2023-03-26T09:02:12.460Z,927.01
2023-03-26T09:03:12.443Z,927.01
2023-03-26T09:04:12.399Z,927.02
2023-03-26T09:05:12.402Z,927.02
2023-03-26T09:06:12.334Z,927.01
2023-03-26T09:07:13.186Z,927.01
2023-03-26T09:08:12.347Z,927.02
2023-03-26T09:09:19.064Z,927.04
2023-03-26T09:10:12.554Z,927.07
2023-03-26T09:11:12.262Z,927.11
2023-03-26T09:12:12.367Z,927.13
2023-03-26T09:13:12.356Z,927.15
2023-03-26T09:14:12.267Z,927.15
2023-03-26T09:15:12.220Z,927.15
2023-03-26T09:16:12.428Z,927.15
2023-03-26T09:17:12.233Z,927.16
2023-03-26T09:18:12.322Z,927.17
2023-03-26T09:19:12.227Z,927.18
2023-03-26T09:20:12.252Z,927.18
2023-03-26T09:21:12.133Z,927.19
2023-03-26T09:22:12.217Z,927.19
2023-03-26T09:23:13.899Z,927.21
2023-03-26T09:24:12.173Z,927.22
2023-03-26T09:25:12.136Z,927.24
2023-03-26T09:26:12.143Z,927.26
2023-03-26T09:27:12.076Z,927.28
2023-03-26T09:28:12.395Z,927.30
2023-03-26T09:29:12.096Z,927.31
2023-03-26T09:30:12.171Z,927.33
2023-03-26T09:31:12.134Z,927.34
2023-03-26T09:32:12.148Z,927.36
2023-03-26T09:33:12.539Z,927.36
2023-03-26T09:34:12.034Z,927.35
2023-03-26T09:35:13.568Z,927.34
2023-03-26T09:36:12.071Z,927.35
2023-03-26T09:37:11.976Z,927.35
2023-03-26T09:38:12.969Z,927.37
2023-03-26T09:39:12.047Z,927.38
2023-03-26T09:40:12.004Z,927.39
2023-03-26T09:41:12.006Z,927.41
2023-03-26T09:42:11.983Z,927.41
2023-03-26T09:43:11.995Z,927.42
2023-03-26T09:44:11.987Z,927.43
2023-03-26T09:45:11.991Z,927.44
2023-03-26T09:46:11.964Z,927.46
2023-03-26T09:47:12.007Z,927.46
2023-03-26T09:48:11.936Z,927.48
2023-03-26T09:49:11.882Z,927.49
2023-03-26T09:50:11.933Z,927.48
2023-03-26T09:51:11.879Z,927.47
2023-03-26T09:52:11.883Z,927.46
2023-03-26T09:53:11.885Z,927.46
2023-03-26T09:54:11.895Z,927.46
2023-03-26T09:55:11.796Z,927.48
2023-03-26T09:56:11.866Z,927.49
2023-03-26T09:57:11.848Z,927.50
2023-03-26T09:58:11.820Z,927.51
2023-03-26T09:59:11.773Z,927.51
2023-03-26T10:00:11.804Z,927.51
2023-03-26T10:01:11.857Z,927.50
2023-03-26T10:02:11.732Z,927.50
2023-03-26T10:03:11.735Z,927.48
2023-03-26T10:04:11.709Z,927.48
2023-03-26T10:05:11.754Z,927.49
2023-03-26T10:06:12.472Z,927.49
2023-03-26T10:07:11.663Z,927.49
2023-03-26T10:08:11.677Z,927.49
2023-03-26T10:09:11.747Z,927.51
2023-03-26T10:10:11.689Z,927.52
2023-03-26T10:11:11.687Z,927.55
2023-03-26T10:12:11.677Z,927.58
2023-03-26T10:13:14.906Z,927.60
2023-03-26T10:14:11.570Z,927.62
2023-03-26T10:15:11.689Z,927.63
2023-03-26T10:16:11.649Z,927.63
2023-03-26T10:17:11.623Z,927.64
2023-03-26T10:18:27.654Z,927.65
2023-03-26T10:19:11.609Z,927.66
2023-03-26T10:20:11.517Z,927.66
2023-03-26T10:21:11.835Z,927.65
2023-03-26T10:22:11.474Z,927.66
2023-03-26T10:23:11.460Z,927.65
2023-03-26T10:24:11.468Z,927.65
2023-03-26T10:25:11.445Z,927.65
2023-03-26T10:26:11.458Z,927.65
2023-03-26T10:27:11.453Z,927.66
2023-03-26T10:28:11.386Z,927.66
2023-03-26T10:29:11.393Z,927.65
2023-03-26T10:30:11.401Z,927.67
2023-03-26T10:31:11.414Z,927.66
2023-03-26T10:32:11.424Z,927.67
2023-03-26T10:33:11.504Z,927.66
2023-03-26T10:34:28.806Z,927.66
2023-03-26T10:35:11.336Z,927.65
2023-03-26T10:36:11.348Z,927.65
2023-03-26T10:37:11.350Z,927.68
2023-03-26T10:38:11.317Z,927.69
2023-03-26T10:39:11.421Z,927.70
2023-03-26T10:40:11.300Z,927.73
2023-03-26T10:41:11.308Z,927.76
2023-03-26T10:42:11.852Z,927.78
2023-03-26T10:43:12.488Z,927.79
2023-03-26T10:44:11.252Z,927.80
2023-03-26T10:45:11.297Z,927.81
2023-03-26T10:46:11.357Z,927.83
2023-03-26T10:47:11.224Z,927.84
2023-03-26T10:48:11.279Z,927.86
2023-03-26T10:49:11.177Z,927.87
2023-03-26T10:50:11.191Z,927.88
2023-03-26T10:51:11.188Z,927.90
2023-03-26T10:52:11.135Z,927.92
2023-03-26T10:53:11.205Z,927.95
2023-03-26T10:54:11.173Z,927.99
2023-03-26T10:55:11.127Z,928.02
2023-03-26T10:56:11.154Z,928.05
2023-03-26T10:57:11.164Z,928.05
2023-03-26T10:58:11.162Z,928.07
2023-03-26T10:59:11.083Z,928.07
2023-03-26T11:00:11.094Z,928.07
2023-03-26T11:01:11.096Z,928.07
2023-03-26T11:02:11.110Z,928.06
2023-03-26T11:03:11.188Z,928.05
2023-03-26T11:04:11.015Z,928.05
2023-03-26T11:05:11.107Z,928.04
2023-03-26T11:06:11.027Z,928.03
2023-03-26T11:07:11.100Z,928.03
2023-03-26T11:08:11.048Z,928.05
2023-03-26T11:09:11.018Z,928.06
2023-03-26T11:10:11.028Z,928.07
2023-03-26T11:11:11.029Z,928.08
2023-03-26T11:12:27.006Z,928.07
2023-03-26T11:13:10.989Z,928.06
2023-03-26T11:14:10.952Z,928.05
2023-03-26T11:15:10.989Z,928.04
2023-03-26T11:16:11.007Z,928.02
2023-03-26T11:17:14.502Z,928.03
2023-03-26T11:18:11.016Z,928.03
2023-03-26T11:19:10.924Z,928.05
2023-03-26T11:20:10.952Z,928.07
2023-03-26T11:21:19.899Z,928.07
2023-03-26T11:22:10.871Z,928.08
2023-03-26T11:23:10.842Z,928.10
2023-03-26T11:24:10.891Z,928.11
2023-03-26T11:25:10.864Z,928.10
2023-03-26T11:26:10.858Z,928.10
2023-03-26T11:27:15.403Z,928.10
2023-03-26T11:28:12.231Z,928.09
2023-03-26T11:29:32.757Z,928.09
2023-03-26T11:30:10.789Z,928.09
2023-03-26T11:31:10.814Z,928.09
2023-03-26T11:32:10.748Z,928.08
2023-03-26T11:33:10.864Z,928.09
2023-03-26T11:34:10.742Z,928.10
2023-03-26T11:35:10.822Z,928.10
2023-03-26T11:36:10.796Z,928.10
2023-03-26T11:37:10.768Z,928.09
2023-03-26T11:38:10.675Z,928.09
2023-03-26T11:39:10.711Z,928.10
2023-03-26T11:40:10.707Z,928.10
2023-03-26T11:41:10.715Z,928.11
2023-03-26T11:42:10.719Z,928.10
2023-03-26T11:43:10.717Z,928.11
2023-03-26T11:44:10.619Z,928.11
2023-03-26T11:45:10.626Z,928.12
2023-03-26T11:46:10.820Z,928.12
2023-03-26T11:47:10.641Z,928.12
2023-03-26T11:48:10.627Z,928.12
2023-03-26T11:49:10.557Z,928.12
2023-03-26T11:50:10.549Z,928.11
2023-03-26T11:51:10.575Z,928.12
2023-03-26T11:52:10.596Z,928.11
2023-03-26T11:53:10.587Z,928.09
2023-03-26T11:54:10.587Z,928.07
2023-03-26T11:55:11.418Z,928.07
2023-03-26T11:56:10.604Z,928.07
2023-03-26T11:57:10.519Z,928.06
2023-03-26T11:58:11.203Z,928.04
2023-03-26T11:59:10.523Z,928.03
2023-03-26T12:00:10.548Z,928.02
2023-03-26T12:01:10.437Z,928.02
2023-03-26T12:02:10.456Z,928.02
2023-03-26T12:03:10.478Z,928.01
2023-03-26T12:04:10.795Z,928.01
2023-03-26T12:05:10.474Z,928.03
2023-03-26T12:06:10.441Z,928.04
2023-03-26T12:07:10.365Z,928.04
2023-03-26T12:08:10.375Z,928.05
2023-03-26T12:09:10.398Z,928.08
2023-03-26T12:10:18.875Z,928.07
2023-03-26T12:11:10.414Z,928.07
2023-03-26T12:12:10.387Z,928.08
2023-03-26T12:13:10.307Z,928.07
2023-03-26T12:14:10.314Z,928.10
2023-03-26T12:15:10.318Z,928.09
2023-03-26T12:16:10.902Z,928.08
2023-03-26T12:17:10.336Z,928.10
2023-03-26T12:18:11.056Z,928.08
2023-03-26T12:19:10.240Z,928.08
2023-03-26T12:20:10.248Z,928.09
2023-03-26T12:21:10.297Z,928.06
2023-03-26T12:22:10.256Z,928.05
2023-03-26T12:23:10.273Z,928.06
2023-03-26T12:24:10.189Z,928.07
2023-03-26T12:25:10.188Z,928.08
2023-03-26T12:26:10.196Z,928.08
2023-03-26T12:27:10.206Z,928.10
2023-03-26T12:28:10.813Z,928.11